createdAt,value
2024-03-02T00:02:08.016Z,0.10
2024-03-02T00:04:34.564Z,0.08
2024-03-02T00:07:00.965Z,0.20
2024-03-02T00:09:27.608Z,0.20
2024-03-02T00:11:54.037Z,0.20
2024-03-02T00:14:20.663Z,0.15
2024-03-02T00:16:47.285Z,0.20
2024-03-02T00:19:13.678Z,0.25
2024-03-02T00:21:40.433Z,0.30
2024-03-02T00:24:25.962Z,0.10
2024-03-02T00:26:52.419Z,0.20
2024-03-02T00:29:20.529Z,0.30
2024-03-02T00:31:47.440Z,0.10
2024-03-02T00:34:14.768Z,0.20
2024-03-02T00:36:41.317Z,0.30
2024-03-02T00:39:09.127Z,0.20
2024-03-02T00:41:36.972Z,0.20
2024-03-02T00:44:07.083Z,0.20
2024-03-02T00:46:40.899Z,0.15
2024-03-02T00:49:25.690Z,0.20
2024-03-02T00:51:53.219Z,0.40
2024-03-02T00:54:25.490Z,0.28
2024-03-02T00:56:52.457Z,0.20
2024-03-02T00:59:19.112Z,0.10
2024-03-02T01:01:45.520Z,0.22
2024-03-02T01:04:11.885Z,0.10
2024-03-02T01:06:38.334Z,0.17
2024-03-02T01:09:05.248Z,0.22
2024-03-02T01:11:31.611Z,0.20
2024-03-02T01:13:57.968Z,0.40
2024-03-02T01:16:24.482Z,0.30
2024-03-02T01:18:51.077Z,0.28
2024-03-02T01:21:17.682Z,0.35
2024-03-02T01:23:44.766Z,0.10
2024-03-02T01:26:11.184Z,0.50
2024-03-02T01:28:37.659Z,0.38
2024-03-02T01:31:04.213Z,0.10
2024-03-02T01:33:30.726Z,0.20
2024-03-02T01:35:57.138Z,0.45
2024-03-02T01:38:23.512Z,0.13
2024-03-02T01:40:49.940Z,0.20
2024-03-02T01:43:16.387Z,0.20
2024-03-02T01:45:42.943Z,0.20
2024-03-02T01:48:09.441Z,0.20
2024-03-02T01:50:36.290Z,0.17
2024-03-02T01:53:04.177Z,0.30
2024-03-02T01:55:31.684Z,0.20
2024-03-02T01:57:59.201Z,0.10
2024-03-02T02:00:27.853Z,0.20
2024-03-02T02:02:55.020Z,0.25
2024-03-02T02:05:21.665Z,0.20
2024-03-02T02:07:48.264Z,0.30
2024-03-02T02:10:14.752Z,0.17
2024-03-02T02:12:41.267Z,0.20
2024-03-02T02:15:24.044Z,0.30
2024-03-02T02:17:50.685Z,0.55
2024-03-02T02:20:17.287Z,0.60
2024-03-02T02:22:59.990Z,0.50
2024-03-02T02:25:26.769Z,0.63
2024-03-02T02:27:53.576Z,0.52
2024-03-02T02:30:24.070Z,0.55
2024-03-02T02:32:50.751Z,0.50
2024-03-02T02:35:17.321Z,0.57
2024-03-02T02:37:44.750Z,0.70
2024-03-02T02:40:11.516Z,0.50
2024-03-02T02:42:37.936Z,0.65
2024-03-02T02:45:04.974Z,0.73
2024-03-02T02:47:31.567Z,0.70
2024-03-02T02:49:58.032Z,0.50
2024-03-02T02:52:24.477Z,0.60
2024-03-02T02:54:50.995Z,0.30
2024-03-02T02:57:17.668Z,0.50
2024-03-02T02:59:44.102Z,0.50
2024-03-02T03:02:10.479Z,0.30
2024-03-02T03:04:36.926Z,0.45
2024-03-02T03:07:03.352Z,0.30
2024-03-02T03:09:29.794Z,0.60
2024-03-02T03:11:56.325Z,0.30
2024-03-02T03:14:22.726Z,0.50
2024-03-02T03:16:49.768Z,0.55
2024-03-02T03:19:16.211Z,0.28
2024-03-02T03:21:44.223Z,0.30
2024-03-02T03:24:10.704Z,0.30
2024-03-02T03:26:37.697Z,0.38
2024-03-02T03:29:04.214Z,0.70
2024-03-02T03:31:31.065Z,0.50
2024-03-02T03:33:57.601Z,0.40
2024-03-02T03:36:24.251Z,0.82
2024-03-02T03:38:50.656Z,0.47
2024-03-02T03:41:17.035Z,0.60
2024-03-02T03:43:43.624Z,0.63
2024-03-02T03:46:09.997Z,0.68
2024-03-02T03:48:36.581Z,0.73
2024-03-02T03:51:03.198Z,0.40
2024-03-02T03:53:29.873Z,0.50
2024-03-02T03:55:56.329Z,0.80
2024-03-02T03:58:23.362Z,0.55
2024-03-02T04:00:50.023Z,0.60
2024-03-02T04:03:16.533Z,0.70
2024-03-02T04:05:43.041Z,0.52
2024-03-02T04:08:09.574Z,0.68
2024-03-02T04:10:36.318Z,0.57
2024-03-02T04:13:02.721Z,0.32
2024-03-02T04:15:29.183Z,0.60
2024-03-02T04:17:56.569Z,0.60
2024-03-02T04:20:23.036Z,0.50
2024-03-02T04:22:49.477Z,0.52
2024-03-02T04:25:15.875Z,0.55
2024-03-02T04:27:42.352Z,0.50
2024-03-02T04:30:09.303Z,0.30
2024-03-02T04:32:37.348Z,0.32
2024-03-02T04:35:04.091Z,0.50
2024-03-02T04:37:30.494Z,0.45
2024-03-02T04:39:56.959Z,0.35
2024-03-02T04:42:23.824Z,0.40
2024-03-02T04:44:50.268Z,0.50
2024-03-02T04:47:16.666Z,0.30
2024-03-02T04:49:43.099Z,0.40
2024-03-02T04:52:09.697Z,0.43
2024-03-02T04:54:56.106Z,0.30
2024-03-02T04:57:22.589Z,0.32
2024-03-02T04:59:48.960Z,0.30
2024-03-02T05:02:15.339Z,0.63
2024-03-02T05:04:42.979Z,0.40
2024-03-02T05:07:09.407Z,0.30
2024-03-02T05:09:35.944Z,0.20
2024-03-02T05:12:20.848Z,0.28
2024-03-02T05:14:47.380Z,0.30
2024-03-02T05:17:13.787Z,0.30
2024-03-02T05:19:40.230Z,0.30
2024-03-02T05:22:06.831Z,0.40
2024-03-02T05:24:33.291Z,0.30
2024-03-02T05:26:59.881Z,0.43
2024-03-02T05:29:26.340Z,0.30
2024-03-02T05:31:52.857Z,0.38
2024-03-02T05:34:19.779Z,0.47
2024-03-02T05:36:46.230Z,0.20
2024-03-02T05:39:12.699Z,0.30
2024-03-02T05:41:39.205Z,0.30
2024-03-02T05:44:05.696Z,0.40
2024-03-02T05:46:32.062Z,0.40
2024-03-02T05:48:58.766Z,0.50
2024-03-02T05:51:25.477Z,0.20
2024-03-02T05:53:52.005Z,0.30
2024-03-02T05:56:18.347Z,0.30
2024-03-02T05:59:03.484Z,0.43
2024-03-02T06:01:30.719Z,0.40
2024-03-02T06:03:57.443Z,0.20
2024-03-02T06:06:24.145Z,0.30
2024-03-02T06:08:51.381Z,0.35
2024-03-02T06:11:18.238Z,0.40
2024-03-02T06:13:44.583Z,0.50
2024-03-02T06:16:11.033Z,0.70
2024-03-02T06:18:37.535Z,0.47
2024-03-02T06:21:04.148Z,0.57
2024-03-02T06:23:30.660Z,0.47
2024-03-02T06:25:57.007Z,0.30
2024-03-02T06:28:23.590Z,0.40
2024-03-02T06:30:50.208Z,0.55
2024-03-02T06:33:17.190Z,0.20
2024-03-02T06:35:43.836Z,0.45
2024-03-02T06:38:10.340Z,0.60
2024-03-02T06:40:38.744Z,0.45
2024-03-02T06:43:05.317Z,0.60
2024-03-02T06:45:31.826Z,0.43
2024-03-02T06:47:58.323Z,0.30
2024-03-02T06:50:25.361Z,0.20
2024-03-02T06:52:51.711Z,0.47
2024-03-02T06:55:18.112Z,0.30
2024-03-02T06:57:44.622Z,0.40
2024-03-02T07:00:11.621Z,0.30
2024-03-02T07:02:38.163Z,0.40
2024-03-02T07:05:05.266Z,0.30
2024-03-02T07:07:31.745Z,0.50
2024-03-02T07:09:58.262Z,0.35
2024-03-02T07:12:24.685Z,0.30
2024-03-02T07:15:06.221Z,0.50
2024-03-02T07:17:32.919Z,0.30
2024-03-02T07:19:59.325Z,0.40
2024-03-02T07:22:25.897Z,0.55
2024-03-02T07:24:52.406Z,0.47
2024-03-02T07:27:18.917Z,0.43
2024-03-02T07:29:45.388Z,0.32
2024-03-02T07:32:11.922Z,0.28
2024-03-02T07:34:41.272Z,0.45
2024-03-02T07:37:07.778Z,0.50
2024-03-02T07:39:34.490Z,0.38
2024-03-02T07:42:01.194Z,0.40
2024-03-02T07:44:28.251Z,0.40
2024-03-02T07:46:54.733Z,0.63
2024-03-02T07:49:21.266Z,0.40
2024-03-02T07:51:47.864Z,0.68
2024-03-02T07:54:14.284Z,0.40
2024-03-02T07:56:40.822Z,0.25
2024-03-02T07:59:08.458Z,0.40
2024-03-02T08:01:35.351Z,0.20
2024-03-02T08:04:04.729Z,0.43
2024-03-02T08:06:31.204Z,0.60
2024-03-02T08:08:58.715Z,0.57
2024-03-02T08:11:25.328Z,0.40
2024-03-02T08:13:52.895Z,0.75
2024-03-02T08:16:22.314Z,0.57
2024-03-02T08:18:48.988Z,0.85
2024-03-02T08:21:15.424Z,0.50
2024-03-02T08:23:44.719Z,0.47
2024-03-02T08:26:11.542Z,0.52
2024-03-02T08:28:43.726Z,0.77
2024-03-02T08:31:11.137Z,0.57
2024-03-02T08:33:38.741Z,0.60
2024-03-02T08:36:05.787Z,0.68
2024-03-02T08:38:32.283Z,0.70
2024-03-02T08:40:58.741Z,0.65
2024-03-02T08:43:25.983Z,0.20
2024-03-02T08:45:52.466Z,0.70
2024-03-02T08:48:18.953Z,0.52
2024-03-02T08:50:45.427Z,0.50
2024-03-02T08:53:11.872Z,0.50
2024-03-02T08:55:38.248Z,0.50
2024-03-02T08:58:04.942Z,0.50
2024-03-02T09:00:31.526Z,0.50
2024-03-02T09:02:58.041Z,0.40
2024-03-02T09:05:24.383Z,0.50
2024-03-02T09:07:50.795Z,0.80
2024-03-02T09:10:17.375Z,0.70
2024-03-02T09:12:44.093Z,0.65
2024-03-02T09:15:10.503Z,0.52
2024-03-02T09:17:37.089Z,0.73
2024-03-02T09:20:05.164Z,1.13
2024-03-02T09:22:31.617Z,1.65
2024-03-02T09:24:58.090Z,0.60
2024-03-02T09:27:24.615Z,0.80
2024-03-02T09:29:51.033Z,0.82
2024-03-02T09:32:17.439Z,0.43
2024-03-02T09:34:44.471Z,0.35
2024-03-02T09:37:11.041Z,0.57
2024-03-02T09:39:37.512Z,0.55
2024-03-02T09:42:05.252Z,0.57
2024-03-02T09:44:31.704Z,0.47
2024-03-02T09:46:58.139Z,0.57
2024-03-02T09:49:25.080Z,0.82
2024-03-02T09:51:51.643Z,0.77
2024-03-02T09:54:22.620Z,0.80
2024-03-02T09:56:50.250Z,0.70
2024-03-02T09:59:18.672Z,0.60
2024-03-02T10:01:59.365Z,0.77
2024-03-02T10:04:26.935Z,0.52
2024-03-02T10:07:10.168Z,0.60
2024-03-02T10:09:36.703Z,0.93
2024-03-02T10:12:06.761Z,0.75
2024-03-02T10:14:33.241Z,0.68
2024-03-02T10:17:03.916Z,0.50
2024-03-02T10:19:34.016Z,0.50
2024-03-02T10:22:03.094Z,0.43
2024-03-02T10:24:41.209Z,0.70
2024-03-02T10:27:17.870Z,0.60
2024-03-02T10:29:46.972Z,1.17
2024-03-02T10:32:13.572Z,1.40
2024-03-02T10:34:43.402Z,1.08
2024-03-02T10:37:11.404Z,0.95
2024-03-02T10:39:39.003Z,0.73
2024-03-02T10:42:07.034Z,0.65
2024-03-02T10:44:34.074Z,0.80
2024-03-02T10:47:05.159Z,1.27
2024-03-02T10:49:32.508Z,0.73
2024-03-02T10:52:02.244Z,0.77
2024-03-02T10:54:31.093Z,0.80
2024-03-02T10:57:03.035Z,0.90
2024-03-02T10:59:32.597Z,1.13
2024-03-02T11:02:05.485Z,0.90
2024-03-02T11:04:33.237Z,0.90
2024-03-02T11:06:59.850Z,1.10
2024-03-02T11:09:27.163Z,0.75
2024-03-02T11:12:05.908Z,0.77
2024-03-02T11:14:35.798Z,0.68
2024-03-02T11:17:04.566Z,0.70
2024-03-02T11:19:31.721Z,1.20
2024-03-02T11:21:58.568Z,1.67
2024-03-02T11:24:25.099Z,0.90
2024-03-02T11:26:52.883Z,0.50
2024-03-02T11:29:37.804Z,1.13
2024-03-02T11:32:04.847Z,0.80
2024-03-02T11:34:31.875Z,0.50
2024-03-02T11:37:05.457Z,0.60
2024-03-02T11:39:32.564Z,0.70
2024-03-02T11:42:00.284Z,0.40
2024-03-02T11:44:27.612Z,0.70
2024-03-02T11:47:06.100Z,0.68
2024-03-02T11:49:41.844Z,0.50
2024-03-02T11:52:09.254Z,1.27
2024-03-02T11:54:36.489Z,0.52
2024-03-02T11:57:03.695Z,1.02
2024-03-02T11:59:31.083Z,1.45
2024-03-02T12:01:58.431Z,0.60
2024-03-02T12:04:25.113Z,0.52
2024-03-02T12:06:57.495Z,1.13
2024-03-02T12:09:24.003Z,0.90
2024-03-02T12:12:01.920Z,0.52
2024-03-02T12:14:30.026Z,0.47
2024-03-02T12:16:56.956Z,0.68
2024-03-02T12:19:23.302Z,0.60
2024-03-02T12:21:49.763Z,0.60
2024-03-02T12:24:16.516Z,0.45
2024-03-02T12:26:42.913Z,0.77
2024-03-02T12:29:09.264Z,1.00
2024-03-02T12:31:36.545Z,0.68
2024-03-02T12:34:03.883Z,0.93
2024-03-02T12:36:30.339Z,0.60
2024-03-02T12:38:56.751Z,0.80
2024-03-02T12:41:23.249Z,0.38
2024-03-02T12:43:49.612Z,0.60
2024-03-02T12:46:16.942Z,0.60
2024-03-02T12:48:43.723Z,1.00
2024-03-02T12:51:10.171Z,0.63
2024-03-02T12:53:36.572Z,0.73
2024-03-02T12:56:03.277Z,0.63
2024-03-02T12:58:31.744Z,0.93
2024-03-02T13:01:08.752Z,1.00
2024-03-02T13:03:41.730Z,0.63
2024-03-02T13:06:08.676Z,1.05
2024-03-02T13:08:35.290Z,0.98
2024-03-02T13:11:02.024Z,0.80
2024-03-02T13:13:31.671Z,1.13
2024-03-02T13:15:58.171Z,0.80
2024-03-02T13:18:24.661Z,0.88
2024-03-02T13:20:51.138Z,0.50
2024-03-02T13:23:17.483Z,0.40
2024-03-02T13:25:44.410Z,0.88
2024-03-02T13:28:11.084Z,0.75
2024-03-02T13:30:37.525Z,0.80
2024-03-02T13:33:04.098Z,0.68
2024-03-02T13:35:30.627Z,0.50
2024-03-02T13:37:57.248Z,0.50
2024-03-02T13:40:24.720Z,0.60
2024-03-02T13:42:52.811Z,0.68
2024-03-02T13:45:19.311Z,0.90
2024-03-02T13:47:45.792Z,0.90
2024-03-02T13:50:12.161Z,0.93
2024-03-02T13:52:38.602Z,0.60
2024-03-02T13:55:05.406Z,0.55
2024-03-02T13:57:31.967Z,0.95
2024-03-02T13:59:58.435Z,0.90
2024-03-02T14:02:24.824Z,0.60
2024-03-02T14:04:51.672Z,0.77
2024-03-02T14:07:18.175Z,0.40
2024-03-02T14:09:44.809Z,0.75
2024-03-02T14:12:11.499Z,0.60
2024-03-02T14:14:37.954Z,0.65
2024-03-02T14:17:07.755Z,0.55
2024-03-02T14:19:34.290Z,0.65
2024-03-02T14:22:01.070Z,0.40
2024-03-02T14:24:29.352Z,0.85
2024-03-02T14:27:03.322Z,0.60
2024-03-02T14:29:39.149Z,0.57
2024-03-02T14:32:05.889Z,0.70
2024-03-02T14:34:32.419Z,0.30
2024-03-02T14:36:59.088Z,0.55
2024-03-02T14:39:25.777Z,0.47
2024-03-02T14:41:52.237Z,0.70
2024-03-02T14:44:18.959Z,0.43
2024-03-02T14:46:48.958Z,0.80
2024-03-02T14:49:15.784Z,0.52
2024-03-02T14:51:42.367Z,0.50
2024-03-02T14:54:08.777Z,0.60
2024-03-02T14:56:35.164Z,0.60
2024-03-02T14:59:01.635Z,1.00
2024-03-02T15:01:28.101Z,1.10
2024-03-02T15:03:54.684Z,0.70
2024-03-02T15:06:21.235Z,0.40
2024-03-02T15:08:47.972Z,0.60
2024-03-02T15:11:14.668Z,0.70
2024-03-02T15:13:41.309Z,0.73
2024-03-02T15:16:07.741Z,0.60
2024-03-02T15:18:36.142Z,0.65
2024-03-02T15:21:03.291Z,0.52
2024-03-02T15:23:31.097Z,0.60
2024-03-02T15:25:57.641Z,0.47
2024-03-02T15:28:24.098Z,0.45
2024-03-02T15:30:53.102Z,0.57
2024-03-02T15:33:19.864Z,0.77
2024-03-02T15:35:46.253Z,0.60
2024-03-02T15:38:24.621Z,0.65
2024-03-02T15:40:58.743Z,0.82
2024-03-02T15:43:25.305Z,0.50
2024-03-02T15:45:51.714Z,0.55
2024-03-02T15:48:18.170Z,1.05
2024-03-02T15:50:44.735Z,0.70
2024-03-02T15:53:11.422Z,0.70
2024-03-02T15:55:38.553Z,0.90
2024-03-02T15:58:07.051Z,0.73
2024-03-02T16:00:33.514Z,0.65
2024-03-02T16:03:00.031Z,0.60
2024-03-02T16:05:26.364Z,1.27
2024-03-02T16:07:52.713Z,0.55
2024-03-02T16:10:19.292Z,0.38
2024-03-02T16:12:45.778Z,0.90
2024-03-02T16:15:12.302Z,0.70
2024-03-02T16:17:38.753Z,0.75
2024-03-02T16:20:07.246Z,0.65
2024-03-02T16:22:34.282Z,1.20
2024-03-02T16:25:00.766Z,0.82
2024-03-02T16:27:28.945Z,0.40
2024-03-02T16:30:00.385Z,0.90
2024-03-02T16:32:29.572Z,1.05
2024-03-02T16:34:56.440Z,0.98
2024-03-02T16:37:24.812Z,0.77
2024-03-02T16:39:51.374Z,0.70
2024-03-02T16:42:20.968Z,0.82
2024-03-02T16:44:49.494Z,1.13
2024-03-02T16:47:16.628Z,0.70
2024-03-02T16:49:46.485Z,0.60
2024-03-02T16:52:13.925Z,0.80
2024-03-02T16:54:40.384Z,1.88
2024-03-02T16:57:06.858Z,1.00
2024-03-02T16:59:33.256Z,0.80
2024-03-02T17:02:00.032Z,1.10
2024-03-02T17:04:27.373Z,0.70
2024-03-02T17:06:54.067Z,1.73
2024-03-02T17:09:20.470Z,2.10
2024-03-02T17:11:46.829Z,1.00
2024-03-02T17:14:13.390Z,1.13
2024-03-02T17:16:39.764Z,1.05
2024-03-02T17:19:06.269Z,1.02
2024-03-02T17:21:33.786Z,0.40
2024-03-02T17:24:01.310Z,1.48
2024-03-02T17:26:27.878Z,0.98
2024-03-02T17:28:54.257Z,0.70
2024-03-02T17:31:20.690Z,1.13
2024-03-02T17:33:47.185Z,1.10
2024-03-02T17:36:14.394Z,0.68
2024-03-02T17:38:41.471Z,0.98
2024-03-02T17:41:08.698Z,1.00
2024-03-02T17:43:35.329Z,0.93
2024-03-02T17:46:01.895Z,0.80
2024-03-02T17:48:29.408Z,1.05
2024-03-02T17:50:56.020Z,1.00
2024-03-02T17:53:22.663Z,1.58
2024-03-02T17:55:49.040Z,1.35
2024-03-02T17:58:15.452Z,0.90
2024-03-02T18:00:46.050Z,1.25
2024-03-02T18:03:12.517Z,1.38
2024-03-02T18:05:38.884Z,1.08
2024-03-02T18:08:06.517Z,1.20
2024-03-02T18:10:34.157Z,1.25
2024-03-02T18:13:00.747Z,1.40
2024-03-02T18:15:27.326Z,1.00
2024-03-02T18:17:53.805Z,1.10
2024-03-02T18:20:20.397Z,1.30
2024-03-02T18:22:46.837Z,1.02
2024-03-02T18:25:13.368Z,1.00
2024-03-02T18:27:40.084Z,1.00
2024-03-02T18:30:10.946Z,1.02
2024-03-02T18:32:40.650Z,1.02
2024-03-02T18:35:07.527Z,0.70
2024-03-02T18:37:34.016Z,0.60
2024-03-02T18:40:00.633Z,0.85
2024-03-02T18:42:27.450Z,0.60
2024-03-02T18:44:53.942Z,0.52
2024-03-02T18:47:20.444Z,0.90
2024-03-02T18:49:46.969Z,1.00
2024-03-02T18:52:13.850Z,0.90
2024-03-02T18:54:41.960Z,1.00
2024-03-02T18:57:08.585Z,0.93
2024-03-02T18:59:34.963Z,0.90
2024-03-02T19:02:01.496Z,0.80
2024-03-02T19:04:28.053Z,1.02
2024-03-02T19:06:54.567Z,0.98
2024-03-02T19:09:21.031Z,1.13
2024-03-02T19:11:47.691Z,0.95
2024-03-02T19:14:14.074Z,0.80
2024-03-02T19:16:40.454Z,0.90
2024-03-02T19:19:06.844Z,0.98
2024-03-02T19:21:33.534Z,0.70
2024-03-02T19:24:00.070Z,0.80
2024-03-02T19:26:26.495Z,0.80
2024-03-02T19:28:53.098Z,1.08
2024-03-02T19:31:19.700Z,1.48
2024-03-02T19:33:46.316Z,1.05
2024-03-02T19:36:13.286Z,0.85
2024-03-02T19:38:40.440Z,0.82
2024-03-02T19:41:06.907Z,1.70
2024-03-02T19:43:33.279Z,1.00
2024-03-02T19:45:59.863Z,1.23
2024-03-02T19:48:26.303Z,1.33
2024-03-02T19:50:53.316Z,1.08
2024-03-02T19:53:19.865Z,1.17
2024-03-02T19:55:47.802Z,1.00
2024-03-02T19:58:14.868Z,1.10
2024-03-02T20:00:41.837Z,1.23
2024-03-02T20:03:08.324Z,1.73
2024-03-02T20:05:34.722Z,0.93
2024-03-02T20:08:01.618Z,0.90
2024-03-02T20:10:28.025Z,0.88
2024-03-02T20:12:54.757Z,1.00
2024-03-02T20:15:21.199Z,0.75
2024-03-02T20:17:47.846Z,0.80
2024-03-02T20:20:14.927Z,1.10
2024-03-02T20:22:41.368Z,0.60
2024-03-02T20:25:08.068Z,0.90
2024-03-02T20:27:34.549Z,1.15
2024-03-02T20:30:01.415Z,1.00
2024-03-02T20:32:27.887Z,1.23
2024-03-02T20:34:54.342Z,0.95
2024-03-02T20:37:24.721Z,0.98
2024-03-02T20:39:55.971Z,1.10
2024-03-02T20:42:22.437Z,1.20
2024-03-02T20:44:48.797Z,1.73
2024-03-02T20:47:15.174Z,0.90
2024-03-02T20:49:44.853Z,1.27
2024-03-02T20:52:11.417Z,1.20
2024-03-02T20:54:38.221Z,1.38
2024-03-02T20:57:07.491Z,1.27
2024-03-02T20:59:34.586Z,1.00
2024-03-02T21:02:01.372Z,1.15
2024-03-02T21:04:27.923Z,1.30
2024-03-02T21:06:54.599Z,1.48
2024-03-02T21:09:21.418Z,1.20
2024-03-02T21:11:49.479Z,1.10
2024-03-02T21:14:15.986Z,1.40
2024-03-02T21:16:42.597Z,0.90
2024-03-02T21:19:09.886Z,1.38
2024-03-02T21:21:36.716Z,0.98
2024-03-02T21:24:03.325Z,1.10
2024-03-02T21:26:29.744Z,1.48
2024-03-02T21:28:56.172Z,1.10
2024-03-02T21:31:22.687Z,1.00
2024-03-02T21:33:49.068Z,0.90
2024-03-02T21:36:15.500Z,0.95
2024-03-02T21:38:42.056Z,0.85
2024-03-02T21:41:08.649Z,1.10
2024-03-02T21:43:35.185Z,0.80
2024-03-02T21:46:01.701Z,1.02
2024-03-02T21:48:28.079Z,1.05
2024-03-02T21:50:54.534Z,0.95
2024-03-02T21:53:20.953Z,1.15
2024-03-02T21:55:47.600Z,0.90
2024-03-02T21:58:14.132Z,1.00
2024-03-02T22:00:40.846Z,0.73
2024-03-02T22:03:07.365Z,0.85
2024-03-02T22:05:36.210Z,1.20
2024-03-02T22:08:02.597Z,1.27
2024-03-02T22:10:30.696Z,1.20
2024-03-02T22:12:57.246Z,0.93
2024-03-02T22:15:23.836Z,1.35
2024-03-02T22:17:50.449Z,1.13
2024-03-02T22:20:16.871Z,1.08
2024-03-02T22:22:43.208Z,1.10
2024-03-02T22:25:10.063Z,1.20
2024-03-02T22:27:40.727Z,1.00
2024-03-02T22:30:08.906Z,1.10
2024-03-02T22:32:35.344Z,0.88
2024-03-02T22:35:02.077Z,0.80
2024-03-02T22:37:28.494Z,1.00
2024-03-02T22:39:56.377Z,0.90
2024-03-02T22:42:22.976Z,0.90
2024-03-02T22:44:49.360Z,1.00
2024-03-02T22:47:16.010Z,1.13
2024-03-02T22:49:42.468Z,0.90
2024-03-02T22:52:09.049Z,0.98
2024-03-02T22:54:35.688Z,0.90
2024-03-02T22:57:02.296Z,1.15
2024-03-02T22:59:28.834Z,1.00
2024-03-02T23:01:55.591Z,1.00
2024-03-02T23:04:22.169Z,0.80
2024-03-02T23:06:49.605Z,0.70
2024-03-02T23:09:16.087Z,1.05
2024-03-02T23:11:42.452Z,0.82
2024-03-02T23:14:09.269Z,0.90
2024-03-02T23:16:38.177Z,0.70
2024-03-02T23:19:04.797Z,0.80
2024-03-02T23:21:31.577Z,0.80
2024-03-02T23:23:58.841Z,0.82
2024-03-02T23:26:26.082Z,0.68
2024-03-02T23:28:52.684Z,0.88
2024-03-02T23:31:19.744Z,0.80
2024-03-02T23:33:46.794Z,0.80
2024-03-02T23:36:13.190Z,0.80
2024-03-02T23:38:39.736Z,0.75
2024-03-02T23:41:10.565Z,0.77
2024-03-02T23:43:37.421Z,0.80
2024-03-02T23:46:05.048Z,0.80
2024-03-02T23:48:31.508Z,0.90
2024-03-02T23:50:57.846Z,0.98
2024-03-02T23:53:24.314Z,0.60
2024-03-02T23:55:52.858Z,0.73
2024-03-02T23:58:20.179Z,0.70
